createdAt,value
2018-06-20T00:01:38.202Z,98804.26
2018-06-20T00:04:13.644Z,98804.98
2018-06-20T00:06:49.121Z,98799.49
2018-06-20T00:09:24.854Z,98802.44
2018-06-20T00:12:00.400Z,98799.05
2018-06-20T00:14:35.684Z,98793.62
2018-06-20T00:17:11.043Z,98800.20
2018-06-20T00:19:46.555Z,98795.90
2018-06-20T00:22:21.978Z,98788.94
2018-06-20T00:24:57.630Z,98789.05
2018-06-20T00:27:33.126Z,98791.10
2018-06-20T00:30:08.778Z,98788.80
2018-06-20T00:32:44.542Z,98790.78
2018-06-20T00:35:20.114Z,98789.73
2018-06-20T00:37:55.844Z,98781.70
2018-06-20T00:40:31.232Z,98781.50
2018-06-20T00:43:06.678Z,98787.70
2018-06-20T00:45:42.166Z,98784.69
2018-06-20T00:48:17.605Z,98786.31
2018-06-20T00:50:53.159Z,98783.25
2018-06-20T00:53:28.644Z,98780.12
2018-06-20T00:56:15.118Z,98783.02
2018-06-20T00:58:50.538Z,98782.87
2018-06-20T01:01:25.984Z,98794.43
2018-06-20T01:04:01.510Z,98789.98
2018-06-20T01:06:37.033Z,98781.51
2018-06-20T01:09:12.346Z,98786.97
2018-06-20T01:11:47.918Z,98787.73
2018-06-20T01:14:23.430Z,98784.02
2018-06-20T01:16:58.858Z,98787.09
2018-06-20T01:19:34.129Z,98782.41
2018-06-20T01:22:09.611Z,98785.23
2018-06-20T01:24:45.109Z,98778.48
2018-06-20T01:27:20.478Z,98787.05
2018-06-20T01:29:56.001Z,98790.61
2018-06-20T01:32:31.469Z,98785.64
2018-06-20T01:35:07.055Z,98786.20
2018-06-20T01:37:42.679Z,98789.15
2018-06-20T01:40:18.196Z,98793.88
2018-06-20T01:42:53.816Z,98790.85
2018-06-20T01:45:29.294Z,98790.77
2018-06-20T01:48:04.690Z,98784.30
2018-06-20T01:50:40.231Z,98788.87
2018-06-20T01:53:15.784Z,98785.04
2018-06-20T01:55:51.450Z,98781.22
2018-06-20T01:58:27.049Z,98776.65
2018-06-20T02:01:02.405Z,98780.83
2018-06-20T02:03:38.082Z,98783.28
2018-06-20T02:06:13.526Z,98779.80
2018-06-20T02:08:51.422Z,98785.52
2018-06-20T02:11:27.975Z,98777.59
2018-06-20T02:14:03.435Z,98781.36
2018-06-20T02:16:38.870Z,98782.16
2018-06-20T02:19:14.426Z,98780.84
2018-06-20T02:21:49.720Z,98776.90
2018-06-20T02:24:25.196Z,98773.19
2018-06-20T02:27:00.604Z,98776.13
2018-06-20T02:29:36.067Z,98781.25
2018-06-20T02:32:11.519Z,98777.57
2018-06-20T02:34:47.431Z,98781.63
2018-06-20T02:37:23.031Z,98779.34
2018-06-20T02:39:59.317Z,98776.63
2018-06-20T02:42:34.883Z,98776.08
2018-06-20T02:45:10.294Z,98767.57
2018-06-20T02:47:45.710Z,98764.23
2018-06-20T02:50:21.186Z,98772.79
2018-06-20T02:52:56.478Z,98769.37
2018-06-20T02:55:31.922Z,98763.45
2018-06-20T02:58:07.413Z,98767.81
2018-06-20T03:00:42.881Z,98771.53
2018-06-20T03:03:18.322Z,98770.06
2018-06-20T03:05:53.802Z,98763.44
2018-06-20T03:08:29.308Z,98770.08
2018-06-20T03:11:05.410Z,98760.59
2018-06-20T03:13:40.920Z,98763.99
2018-06-20T03:16:16.398Z,98758.94
2018-06-20T03:18:51.902Z,98764.17
2018-06-20T03:21:27.510Z,98755.86
2018-06-20T03:24:03.039Z,98770.95
2018-06-20T03:26:38.498Z,98758.00
2018-06-20T03:29:13.891Z,98768.75
2018-06-20T03:31:49.447Z,98761.20
2018-06-20T03:34:24.842Z,98766.97
2018-06-20T03:37:00.444Z,98769.37
2018-06-20T03:39:35.909Z,98771.52
2018-06-20T03:42:11.533Z,98769.27
2018-06-20T03:44:47.272Z,98765.50
2018-06-20T03:47:22.694Z,98766.16
2018-06-20T03:49:58.691Z,98768.43
2018-06-20T03:52:35.077Z,98762.96
2018-06-20T03:55:10.894Z,98767.59
2018-06-20T03:57:41.447Z,98765.25
2018-06-20T04:00:12.142Z,98769.48
2018-06-20T04:02:43.296Z,98762.55
2018-06-20T04:05:13.616Z,98775.08
2018-06-20T04:07:43.769Z,98770.29
2018-06-20T04:10:14.207Z,98767.41
2018-06-20T04:12:49.841Z,98769.67
2018-06-20T04:15:25.224Z,98769.53
2018-06-20T04:18:00.624Z,98771.11
2018-06-20T04:20:36.266Z,98772.09
2018-06-20T04:23:11.715Z,98773.20
2018-06-20T04:25:47.306Z,98768.02
2018-06-20T04:28:22.851Z,98763.50
2018-06-20T04:30:58.572Z,98763.03
2018-06-20T04:33:35.022Z,98763.62
2018-06-20T04:36:11.167Z,98759.73
2018-06-20T04:38:46.601Z,98760.38
2018-06-20T04:41:22.219Z,98754.02
2018-06-20T04:43:57.798Z,98758.79
2018-06-20T04:46:33.392Z,98752.75
2018-06-20T04:49:09.075Z,98754.47
2018-06-20T04:51:44.522Z,98750.05
2018-06-20T04:54:20.031Z,98755.19
2018-06-20T04:56:56.147Z,98753.67
2018-06-20T04:59:31.866Z,98751.02
2018-06-20T05:02:07.233Z,98748.09
2018-06-20T05:04:42.763Z,98744.42
2018-06-20T05:07:18.237Z,98744.36
2018-06-20T05:09:53.652Z,98740.69
2018-06-20T05:12:28.891Z,98738.05
2018-06-20T05:15:04.395Z,98735.27
2018-06-20T05:17:40.415Z,98737.41
2018-06-20T05:20:15.711Z,98740.87
2018-06-20T05:22:51.025Z,98739.28
2018-06-20T05:25:26.690Z,98742.42
2018-06-20T05:28:02.299Z,98745.55
2018-06-20T05:30:38.077Z,98732.87
2018-06-20T05:33:13.999Z,98728.20
2018-06-20T05:35:49.589Z,98735.11
2018-06-20T05:38:26.333Z,98737.66
2018-06-20T05:41:03.441Z,98735.78
2018-06-20T05:43:38.867Z,98738.13
2018-06-20T05:46:14.157Z,98728.83
2018-06-20T05:48:49.812Z,98736.30
2018-06-20T05:51:25.215Z,98736.22
2018-06-20T05:54:00.891Z,98729.84
2018-06-20T05:56:36.391Z,98726.02
2018-06-20T05:59:12.016Z,98728.03
2018-06-20T06:01:47.500Z,98725.86
2018-06-20T06:04:22.852Z,98724.88
2018-06-20T06:06:58.551Z,98717.65
2018-06-20T06:09:34.138Z,98712.47
2018-06-20T06:12:09.725Z,98709.78
2018-06-20T06:14:45.213Z,98708.12
2018-06-20T06:17:20.771Z,98710.06
2018-06-20T06:19:56.310Z,98709.02
2018-06-20T06:22:31.934Z,98716.98
2018-06-20T06:25:07.567Z,98711.31
2018-06-20T06:27:43.334Z,98711.02
2018-06-20T06:30:18.704Z,98714.47
2018-06-20T06:32:54.077Z,98708.98
2018-06-20T06:35:29.389Z,98716.48
2018-06-20T06:38:04.771Z,98715.03
2018-06-20T06:40:40.522Z,98716.23
2018-06-20T06:43:16.025Z,98710.25
2018-06-20T06:45:51.514Z,98711.00
2018-06-20T06:48:27.010Z,98706.63
2018-06-20T06:51:02.255Z,98707.73
2018-06-20T06:53:37.590Z,98700.03
2018-06-20T06:56:12.859Z,98700.16
2018-06-20T06:58:48.237Z,98698.78
2018-06-20T07:01:23.963Z,98699.48
2018-06-20T07:03:59.463Z,98698.23
2018-06-20T07:06:35.063Z,98691.93
2018-06-20T07:09:10.568Z,98682.23
2018-06-20T07:11:46.076Z,98694.36
2018-06-20T07:14:21.628Z,98693.41
2018-06-20T07:16:57.365Z,98694.45
2018-06-20T07:19:32.702Z,98688.58
2018-06-20T07:22:08.538Z,98686.55
2018-06-20T07:24:44.195Z,98687.16
2018-06-20T07:27:19.648Z,98685.58
2018-06-20T07:29:55.285Z,98684.03
2018-06-20T07:32:30.802Z,98681.73
2018-06-20T07:35:06.282Z,98682.45
2018-06-20T07:37:41.816Z,98675.24
2018-06-20T07:40:17.321Z,98680.87
2018-06-20T07:42:52.709Z,98676.22
2018-06-20T07:45:28.276Z,98673.34
2018-06-20T07:48:03.917Z,98668.57
2018-06-20T07:50:39.549Z,98664.90
2018-06-20T07:53:15.110Z,98669.66
2018-06-20T07:55:50.456Z,98666.09
2018-06-20T07:58:31.416Z,98672.05
2018-06-20T08:01:12.045Z,98658.38
2018-06-20T08:03:52.572Z,98664.59
2018-06-20T08:06:33.120Z,98664.29
2018-06-20T08:09:13.590Z,98668.38
2018-06-20T08:11:54.266Z,98665.47
2018-06-20T08:14:34.845Z,98659.64
2018-06-20T08:17:15.490Z,98660.18
2018-06-20T08:19:53.618Z,98654.22
2018-06-20T08:22:29.328Z,98654.94
2018-06-20T08:25:07.567Z,98652.61
2018-06-20T08:27:43.919Z,98642.38
2018-06-20T08:30:20.499Z,98640.43
2018-06-20T08:32:56.488Z,98638.45
2018-06-20T08:35:33.676Z,98635.19
2018-06-20T08:38:10.037Z,98632.64
2018-06-20T08:40:45.621Z,98636.64
2018-06-20T08:43:21.716Z,98634.11
2018-06-20T08:45:58.379Z,98633.14
2018-06-20T08:48:34.654Z,98630.73
2018-06-20T08:51:10.745Z,98624.75
2018-06-20T08:53:46.757Z,98622.55
2018-06-20T08:56:23.461Z,98634.00
2018-06-20T08:59:00.391Z,98628.09
2018-06-20T09:04:45.193Z,98623.39
2018-06-20T09:09:33.217Z,98623.23
2018-06-20T09:12:15.267Z,98616.52
2018-06-20T09:14:56.131Z,98613.33
2018-06-20T09:17:38.613Z,98616.41
2018-06-20T09:20:14.671Z,98607.13
2018-06-20T09:22:50.791Z,98608.27
2018-06-20T09:25:26.179Z,98611.81
2018-06-20T09:28:02.196Z,98608.29
2018-06-20T09:30:38.521Z,98607.61
2018-06-20T09:33:14.111Z,98609.66
2018-06-20T09:35:50.522Z,98594.23
2018-06-20T09:38:26.360Z,98591.76
2018-06-20T09:41:01.818Z,98599.77
2018-06-20T09:43:37.538Z,98613.13
2018-06-20T09:46:14.093Z,98596.72
2018-06-20T09:48:49.587Z,98591.34
2018-06-20T09:51:25.178Z,98587.05
2018-06-20T09:54:00.612Z,98587.05
2018-06-20T09:56:36.472Z,98588.96
2018-06-20T09:59:17.276Z,98591.52
2018-06-20T10:01:58.890Z,98588.81
2018-06-20T10:04:39.457Z,98587.06
2018-06-20T10:07:19.927Z,98587.41
2018-06-20T10:12:07.660Z,98589.02
2018-06-20T10:14:43.558Z,98589.11
2018-06-20T10:17:19.232Z,98584.27
2018-06-20T10:19:55.971Z,98578.48
2018-06-20T10:22:32.744Z,98572.42
2018-06-20T10:25:09.351Z,98575.09
2018-06-20T10:27:45.574Z,98566.53
2018-06-20T10:30:25.484Z,98563.59
2018-06-20T10:33:02.372Z,98559.44
2018-06-20T10:35:38.118Z,98552.08
2018-06-20T10:38:13.474Z,98545.17
2018-06-20T10:40:56.258Z,98548.92
2018-06-20T10:43:32.411Z,98549.78
2018-06-20T10:46:13.452Z,98548.85
2018-06-20T10:48:49.782Z,98545.45
2018-06-20T10:51:25.455Z,98539.38
2018-06-20T10:54:04.802Z,98538.41
2018-06-20T10:56:45.416Z,98536.33
2018-06-20T10:59:27.179Z,98544.23
2018-06-20T11:02:08.270Z,98537.52
2018-06-20T11:04:51.104Z,98524.44
2018-06-20T11:07:32.199Z,98527.09
2018-06-20T11:10:13.662Z,98513.95
2018-06-20T11:13:26.648Z,98524.22
2018-06-20T11:16:06.745Z,98509.45
2018-06-20T11:18:56.630Z,98517.18
2018-06-20T11:21:36.135Z,98499.80
2018-06-20T11:24:13.234Z,98506.48
2018-06-20T11:26:49.587Z,98496.71
2018-06-20T11:29:26.762Z,98494.37
2018-06-20T11:32:02.750Z,98493.69
2018-06-20T11:34:50.266Z,98484.33
2018-06-20T11:37:27.898Z,98480.19
2018-06-20T11:40:03.470Z,98479.09
2018-06-20T11:42:40.596Z,98470.69
2018-06-20T11:45:16.621Z,98464.06
2018-06-20T11:47:52.491Z,98468.11
2018-06-20T11:50:28.403Z,98462.84
2018-06-20T11:53:07.885Z,98458.06
2018-06-20T11:55:47.399Z,98460.52
2018-06-20T11:58:31.849Z,98466.48
2018-06-20T12:01:13.493Z,98450.52
2018-06-20T12:03:54.378Z,98448.88
2018-06-20T12:06:35.041Z,98442.88
2018-06-20T12:09:15.771Z,98445.48
2018-06-20T12:11:56.955Z,98437.66
2018-06-20T12:14:38.034Z,98433.73
2018-06-20T12:17:13.473Z,98435.58
2018-06-20T12:19:55.526Z,98427.84
2018-06-20T12:22:36.387Z,98420.16
2018-06-20T12:25:18.200Z,98430.14
2018-06-20T12:27:58.942Z,98422.83
2018-06-20T12:30:39.674Z,98412.94
2018-06-20T12:33:20.951Z,98420.74
2018-06-20T12:36:01.615Z,98408.11
2018-06-20T12:38:43.608Z,98408.56
2018-06-20T12:41:25.827Z,98407.14
2018-06-20T12:44:08.105Z,98392.25
2018-06-20T12:47:17.828Z,98396.92
2018-06-20T12:50:02.891Z,98400.66
2018-06-20T12:52:52.341Z,98397.08
2018-06-20T12:55:37.026Z,98392.72
2018-06-20T12:58:13.030Z,98390.55
2018-06-20T13:00:49.046Z,98385.95
2018-06-20T13:03:25.110Z,98395.56
2018-06-20T13:06:01.914Z,98386.98
2018-06-20T13:08:38.953Z,98386.50
2018-06-20T13:11:14.646Z,98388.74
2018-06-20T13:13:50.583Z,98385.37
2018-06-20T13:16:27.325Z,98386.13
2018-06-20T13:19:03.156Z,98378.59
2018-06-20T13:21:39.400Z,98366.88
2018-06-20T13:24:15.083Z,98374.72
2018-06-20T13:26:50.688Z,98367.63
2018-06-20T13:29:26.374Z,98368.37
2018-06-20T13:32:07.912Z,98372.86
2018-06-20T13:34:48.563Z,98359.82
2018-06-20T13:37:29.035Z,98368.34
2018-06-20T13:40:11.001Z,98361.06
2018-06-20T13:42:56.517Z,98364.92
2018-06-20T13:45:37.987Z,98363.10
2018-06-20T13:48:20.073Z,98353.37
2018-06-20T13:50:56.541Z,98354.80
2018-06-20T13:53:33.337Z,98344.50
2018-06-20T13:56:10.457Z,98348.39
2018-06-20T13:58:46.109Z,98348.91
2018-06-20T14:01:23.273Z,98347.95
2018-06-20T14:03:58.973Z,98350.88
2018-06-20T14:06:34.569Z,98346.01
2018-06-20T14:09:11.929Z,98336.06
2018-06-20T14:11:47.652Z,98325.17
2018-06-20T14:14:26.176Z,98325.41
2018-06-20T14:17:03.186Z,98321.31
2018-06-20T14:19:44.109Z,98313.46
2018-06-20T14:22:19.920Z,98314.77
2018-06-20T14:24:56.033Z,98321.00
2018-06-20T14:27:33.908Z,98314.70
2018-06-20T14:30:09.581Z,98306.17
2018-06-20T14:32:50.355Z,98309.30
2018-06-20T14:35:31.308Z,98307.45
2018-06-20T14:38:12.000Z,98300.87
2018-06-20T14:40:53.397Z,98300.45
2018-06-20T14:43:34.080Z,98298.38
2018-06-20T14:46:15.300Z,98295.05
2018-06-20T14:48:52.400Z,98291.48
2018-06-20T14:51:28.794Z,98297.92
2018-06-20T14:54:04.424Z,98294.41
2018-06-20T14:56:40.976Z,98287.89
2018-06-20T14:59:17.543Z,98288.67
2018-06-20T15:01:53.842Z,98286.55
2018-06-20T15:04:30.184Z,98278.53
2018-06-20T15:07:07.111Z,98276.38
2018-06-20T15:09:42.822Z,98274.05
2018-06-20T15:12:19.118Z,98270.02
2018-06-20T15:14:54.766Z,98271.39
2018-06-20T15:17:31.390Z,98271.45
2018-06-20T15:20:08.112Z,98262.49
2018-06-20T15:22:47.988Z,98264.53
2018-06-20T15:25:28.940Z,98264.28
2018-06-20T15:28:10.626Z,98257.63
2018-06-20T15:30:51.315Z,98254.34
2018-06-20T15:33:32.486Z,98250.89
2018-06-20T15:36:13.567Z,98262.34
2018-06-20T15:38:50.078Z,98249.20
2018-06-20T15:41:26.204Z,98243.67
2018-06-20T15:44:02.549Z,98243.80
2018-06-20T15:46:39.754Z,98239.33
2018-06-20T15:49:15.880Z,98235.66
2018-06-20T15:51:51.839Z,98230.69
2018-06-20T15:54:28.522Z,98230.16
2018-06-20T15:57:05.736Z,98228.00
2018-06-20T15:59:42.408Z,98216.83
2018-06-20T16:02:19.451Z,98218.63
2018-06-20T16:04:55.211Z,98217.23
2018-06-20T16:07:31.453Z,98215.53
2018-06-20T16:10:10.937Z,98217.80
2018-06-20T16:12:49.625Z,98213.27
2018-06-20T16:15:25.913Z,98207.12
2018-06-20T16:18:04.506Z,98207.23
2018-06-20T16:20:47.367Z,98210.47
2018-06-20T16:23:28.931Z,98208.75
2018-06-20T16:26:10.792Z,98212.38
2018-06-20T16:28:51.951Z,98207.48
2018-06-20T16:31:27.433Z,98205.41
2018-06-20T16:34:02.959Z,98198.00
2018-06-20T16:36:38.567Z,98199.97
2018-06-20T16:39:15.466Z,98203.72
2018-06-20T16:41:53.065Z,98201.55
2018-06-20T16:44:29.151Z,98198.23
2018-06-20T16:47:05.145Z,98192.54
2018-06-20T16:49:41.643Z,98193.75
2018-06-20T16:52:17.514Z,98199.61
2018-06-20T16:54:54.303Z,98195.80
2018-06-20T16:57:31.001Z,98192.66
2018-06-20T17:00:11.819Z,98187.48
2018-06-20T17:02:48.007Z,98189.45
2018-06-20T17:05:28.349Z,98190.77
2018-06-20T17:08:04.127Z,98192.30
2018-06-20T17:10:40.508Z,98188.61
2018-06-20T17:13:22.412Z,98181.93
2018-06-20T17:16:03.779Z,98184.31
2018-06-20T17:18:46.943Z,98188.68
2018-06-20T17:21:27.920Z,98186.52
2018-06-20T17:24:09.124Z,98188.48
2018-06-20T17:26:45.211Z,98189.47
2018-06-20T17:29:22.041Z,98185.39
2018-06-20T17:31:59.110Z,98187.41
2018-06-20T17:34:36.109Z,98181.09
2018-06-20T17:37:12.315Z,98185.42
2018-06-20T17:39:49.709Z,98181.42
2018-06-20T17:42:29.439Z,98182.27
2018-06-20T17:45:07.788Z,98178.21
2018-06-20T17:47:43.654Z,98177.20
2018-06-20T17:50:20.153Z,98174.92
2018-06-20T17:52:56.829Z,98181.27
2018-06-20T17:55:32.706Z,98181.07
2018-06-20T17:58:10.049Z,98183.18
2018-06-20T18:00:51.340Z,98185.00
2018-06-20T18:03:29.660Z,98181.88
2018-06-20T18:06:10.585Z,98176.68
2018-06-20T18:08:51.801Z,98179.44
2018-06-20T18:11:32.409Z,98177.32
2018-06-20T18:14:13.459Z,98181.19
2018-06-20T18:16:55.088Z,98178.60
2018-06-20T18:19:30.859Z,98177.95
2018-06-20T18:22:07.928Z,98176.50
2018-06-20T18:24:45.391Z,98172.19
2018-06-20T18:27:25.022Z,98177.77
2018-06-20T18:30:01.484Z,98180.86
2018-06-20T18:32:38.510Z,98172.35
2018-06-20T18:35:15.229Z,98177.58
2018-06-20T18:37:55.712Z,98169.91
2018-06-20T18:40:32.620Z,98171.59
2018-06-20T18:43:08.409Z,98176.00
2018-06-20T18:45:44.135Z,98176.38
2018-06-20T18:48:25.447Z,98180.02
2018-06-20T18:51:01.606Z,98177.20
2018-06-20T18:53:37.368Z,98179.53
2018-06-20T18:56:13.997Z,98183.38
2018-06-20T18:58:55.620Z,98182.66
2018-06-20T19:04:25.800Z,98173.60
2018-06-20T19:07:06.502Z,98174.72
2018-06-20T19:09:42.754Z,98177.18
2018-06-20T19:12:18.858Z,98174.91
2018-06-20T19:14:54.750Z,98174.69
2018-06-20T19:17:31.339Z,98173.80
2018-06-20T19:20:07.361Z,98174.90
2018-06-20T19:22:44.203Z,98171.49
2018-06-20T19:25:21.193Z,98175.81
2018-06-20T19:27:56.613Z,98181.77
2018-06-20T19:30:32.947Z,98190.27
2018-06-20T19:33:08.892Z,98186.66
2018-06-20T19:35:44.730Z,98187.55
2018-06-20T19:38:21.094Z,98191.39
2018-06-20T19:40:58.478Z,98195.38
2018-06-20T19:43:34.074Z,98189.05
2018-06-20T19:46:10.854Z,98190.62
2018-06-20T19:48:47.698Z,98201.55
2018-06-20T19:51:23.865Z,98208.45
2018-06-20T19:54:00.547Z,98207.84
2018-06-20T19:56:37.365Z,98207.73
2018-06-20T19:59:14.236Z,98210.30
2018-06-20T20:01:50.354Z,98213.48
2018-06-20T20:04:25.984Z,98209.47
2018-06-20T20:07:02.918Z,98212.06
2018-06-20T20:09:39.656Z,98212.55
2018-06-20T20:12:15.592Z,98214.72
2018-06-20T20:14:51.332Z,98213.27
2018-06-20T20:17:26.942Z,98205.71
2018-06-20T20:20:02.686Z,98217.09
2018-06-20T20:22:39.051Z,98210.02
2018-06-20T20:25:14.687Z,98210.56
2018-06-20T20:27:51.461Z,98210.51
2018-06-20T20:30:28.535Z,98219.86
2018-06-20T20:33:04.178Z,98215.78
2018-06-20T20:35:40.489Z,98216.36
2018-06-20T20:38:18.185Z,98214.50
2018-06-20T20:40:54.238Z,98218.98
2018-06-20T20:43:30.379Z,98219.60
2018-06-20T20:46:07.930Z,98217.58
2018-06-20T20:48:43.597Z,98217.31
2018-06-20T20:51:22.548Z,98225.84
2018-06-20T20:54:06.378Z,98220.84
2018-06-20T20:56:43.834Z,98219.16
2018-06-20T20:59:19.596Z,98218.88
2018-06-20T21:01:55.849Z,98220.95
2018-06-20T21:04:31.257Z,98219.30
2018-06-20T21:07:07.624Z,98221.14
2018-06-20T21:09:43.127Z,98223.92
2018-06-20T21:12:18.561Z,98216.67
2018-06-20T21:14:55.275Z,98222.06
2018-06-20T21:17:33.218Z,98217.94
2018-06-20T21:20:08.720Z,98217.22
2018-06-20T21:22:44.214Z,98217.11
2018-06-20T21:25:20.933Z,98222.11
2018-06-20T21:27:56.458Z,98214.83
2018-06-20T21:30:33.130Z,98213.79
2018-06-20T21:33:09.785Z,98219.22
2018-06-20T21:35:46.375Z,98216.52
2018-06-20T21:38:21.977Z,98216.93
2018-06-20T21:40:57.499Z,98220.30
2018-06-20T21:43:34.499Z,98211.52
2018-06-20T21:46:09.984Z,98215.59
2018-06-20T21:48:45.621Z,98209.66
2018-06-20T21:51:21.423Z,98208.33
2018-06-20T21:53:56.921Z,98205.00
2018-06-20T21:56:32.883Z,98203.81
2018-06-20T21:59:09.464Z,98206.94
2018-06-20T22:01:45.631Z,98210.80
2018-06-20T22:04:21.219Z,98207.53
2018-06-20T22:06:57.929Z,98209.11
2018-06-20T22:09:34.445Z,98204.45
2018-06-20T22:12:10.323Z,98203.41
2018-06-20T22:14:45.995Z,98201.12
2018-06-20T22:17:21.626Z,98195.02
2018-06-20T22:19:58.724Z,98199.59
2018-06-20T22:22:34.382Z,98203.32
2018-06-20T22:25:10.756Z,98203.47
2018-06-20T22:27:46.376Z,98203.77
2018-06-20T22:30:23.045Z,98205.81
2018-06-20T22:32:58.642Z,98200.92
2018-06-20T22:35:35.252Z,98199.12
2018-06-20T22:38:11.047Z,98198.17
2018-06-20T22:40:46.540Z,98195.54
2018-06-20T22:43:23.168Z,98194.68
2018-06-20T22:45:58.485Z,98189.41
2018-06-20T22:48:34.595Z,98190.13
2018-06-20T22:51:10.278Z,98186.13
2018-06-20T22:53:45.674Z,98189.02
2018-06-20T22:56:21.350Z,98186.05
2018-06-20T22:58:57.087Z,98182.18
2018-06-20T23:01:34.436Z,98184.86
2018-06-20T23:04:10.039Z,98186.30
2018-06-20T23:06:45.953Z,98190.49
2018-06-20T23:09:22.172Z,98187.73
2018-06-20T23:11:58.268Z,98184.24
2018-06-20T23:14:35.433Z,98183.53
2018-06-20T23:17:11.897Z,98177.16
2018-06-20T23:19:48.117Z,98175.11
2018-06-20T23:22:23.653Z,98171.03
2018-06-20T23:24:59.787Z,98167.30
2018-06-20T23:27:35.737Z,98164.67
2018-06-20T23:30:12.471Z,98159.60
2018-06-20T23:32:48.956Z,98159.01
2018-06-20T23:35:24.873Z,98161.29
2018-06-20T23:38:00.917Z,98156.48
2018-06-20T23:40:37.299Z,98159.86
2018-06-20T23:43:13.025Z,98157.92
2018-06-20T23:45:50.279Z,98149.89
2018-06-20T23:48:27.349Z,98154.46
2018-06-20T23:51:03.633Z,98149.63
2018-06-20T23:53:41.475Z,98153.11
2018-06-20T23:56:17.271Z,98149.52
2018-06-20T23:58:52.859Z,98143.70
